Nearby METAR Reports

 

EGEO - Oban, United Kingdom
Distance from station: SSW 18mi, 30km
Updated: 22/08/2019 15:50
NOT Current
Mostly cloudy
Mostly cloudy
 Wind from SW
Wind: SW 23 mph , 37 km/h
Temperature: 16°C
Dew Point: 14°C
Humidity: 88%
Barometer: 1012 hPa
Clouds: Mostly cloudy
Visibility: 6 miles , 10 km
Cloud details: Mostly cloudy 305 m
2019/08/22 14:50 EGEO 221450Z 23020KT 9999 BKN010 16/14 Q1012
EGPU - Tiree, United Kingdom
Distance from station: WSW 64mi, 103km
Updated: 22/08/2019 17:20
Few Clouds
Few Clouds
 Wind from WSW
Wind: WSW 17 mph , 28 km/h
Temperature: 16°C
Dew Point: 14°C
Humidity: 88%
Barometer: 1011 hPa
Clouds: Few Clouds
Visibility: 6 miles , 10 km
Cloud details: Few Clouds 366 m
2019/08/22 16:20 EGPU 221620Z 24015KT 9999 FEW012 16/14 Q1011
EGPF - Glasgow, United Kingdom
Distance from station: SSE 66mi, 107km
Updated: 22/08/2019 17:20
Light rain, Overcast
Light rain, Overcast
 Wind from SW
Wind: SW 18 mph , 30 km/h
Temperature: 16°C
Dew Point: 15°C
Humidity: 94%
Barometer: 1012 hPa
Summary: Light rain
Clouds: Overcast
Visibility: 4 miles , 6 km
Cloud details: Overcast 274 m
2019/08/22 16:20 EGPF 221620Z AUTO 23016KT 6000 -RA OVC009 16/15 Q1012
 
EGPE - Inverness, United Kingdom
Distance from station: NE 71mi, 114km
Updated: 22/08/2019 17:20
Partly cloudy
Partly cloudy
 Wind from SW
Wind: SW 28 mph , 44 km/h
Temperature: 18°C
Dew Point: 11°C
Humidity: 64%
Barometer: 1007 hPa
Clouds: Partly cloudy
Visibility: 6 miles , 10 km
Cloud details: Few Clouds 610 m
Partly cloudy 1372 m
2019/08/22 16:20 EGPE 221620Z 22024KT 9999 FEW020 SCT045 18/11 Q1007
EGPI - Islay/Port Ellen, United Kingdom
Distance from station: SSW 81mi, 131km
Updated: 22/08/2019 17:20
Rain, Mist, Mostly cloudy
Rain, Mist, Mostly cloudy
 Wind from SW
Wind: SW 20 mph , 31 km/h
Temperature: 16°C
Dew Point: 16°C
Humidity: 100%
Barometer: 1013 hPa
Summary: Rain, Mist
Clouds: Mostly cloudy
Visibility: 1 mile , 2 km
Cloud details: Partly cloudy 91 m
Mostly cloudy 274 m
2019/08/22 16:20 EGPI 221620Z 23017KT 180V240 2000 RA BR SCT003 BKN009 16/16 Q1013
EGPN - Dundee/Riverside, United Kingdom
Distance from station: E 86mi, 138km
Updated: 22/08/2019 17:20
Nearby showers, Partly cloudy
Nearby showers, Partly cloudy
 Wind from SW
Wind: SW 22 mph , 35 km/h
Temperature: 18°C
Dew Point: 15°C
Humidity: 83%
Barometer: 1011 hPa
Summary: Nearby Showers
Clouds: Partly cloudy
Visibility: 6 miles , 10 km
Cloud details: Few Clouds 457 m
Partly cloudy 914 m
2019/08/22 16:20 EGPN 221620Z 23019KT 9999 VCSH FEW015 SCT030 18/15 Q1011
 
EGPK - Prestwick, United Kingdom
Distance from station: SSE 88mi, 141km
Updated: 22/08/2019 17:20
Mostly cloudy
Mostly cloudy
 Wind from S
Wind: S 16 mph , 26 km/h
Temperature: 18°C
Dew Point: 16°C
Humidity: 88%
Barometer: 1013 hPa
Clouds: Mostly cloudy
Visibility: 6 miles , 10 km
Cloud details: Few Clouds 305 m
Partly cloudy 549 m
Mostly cloudy 1219 m
2019/08/22 16:20 EGPK 221620Z 19014KT 9999 FEW010 SCT018 BKN040 18/16 Q1013
EGPH - Edinburgh, United Kingdom
Distance from station: SE 89mi, 143km
Updated: 22/08/2019 17:20
Partly cloudy
Partly cloudy
 Wind from WSW
Wind: WSW 17 mph , 28 km/h
Temperature: 18°C
Dew Point: 15°C
Humidity: 83%
Barometer: 1012 hPa
Clouds: Partly cloudy
Visibility: 6 miles , 10 km
Cloud details: Partly cloudy 640 m
2019/08/22 16:20 EGPH 221620Z 24015KT 9999 SCT021 18/15 Q1012
EGQK - RAF Kinloss, United Kingdom
Distance from station: NE 90mi, 144km
Updated: 22/08/2019 16:50
Clear
Clear
 Wind from WSW
Wind: WSW 31 mph , 50 km/h, Gust: 44 mph , 70 km/h
Temperature: 19°C
Dew Point: 10°C
Humidity: 56%
Barometer: 1007 hPa
Summary: Clear
Visibility: greater than 7 miles , 10 km
2019/08/22 15:50 EGQK 221550Z 24027G38KT CAVOK 19/10 Q1007 BLU
 
EGEC - Campbeltown, United Kingdom
Distance from station: S 90mi, 145km
Updated: 22/08/2019 17:20
Light rain, Mostly cloudy
Light rain, Mostly cloudy
 Wind from SW
Wind: SW 17 mph , 28 km/h
Temperature: 18°C
Dew Point: 16°C
Humidity: 88%
Barometer: 1013 hPa
Summary: Light rain
Clouds: Mostly cloudy
Visibility: 6 miles , 10 km
Cloud details: Few Clouds 305 m
Partly cloudy 610 m
Mostly cloudy 914 m
2019/08/22 16:20 EGEC 221620Z 23015KT 9999 -RA FEW010 SCT020 BKN030 18/16 Q1013
EGQA - Tain Range, United Kingdom
Distance from station: NNE 91mi, 146km
Updated: 22/08/2019 14:50
NOT Current
Mostly cloudy
Mostly cloudy
 Wind from SSW
Wind: SSW 29 mph , 46 km/h
Clouds: Mostly cloudy
Visibility: 6 miles , 10 km
Cloud details: Mostly cloudy 914 m
2019/08/22 13:50 EGQA 221350Z 20025KT 9999 BKN030 15/// Q1007 RMK BLU
EGQL - RAF Leuchars, United Kingdom
Distance from station: ESE 93mi, 149km
Updated: 22/08/2019 16:50
Rain showers, Partly cloudy
Rain showers, Partly cloudy
 Wind from WSW
Wind: WSW 13 mph , 20 km/h
Temperature: 17°C
Dew Point: 15°C
Humidity: 88%
Barometer: 1011 hPa
Summary: Rain Showers
Clouds: Partly cloudy
Visibility: 6 miles , 10 km
Cloud details: Few Clouds 427 m
Partly cloudy 518 m
2019/08/22 15:50 EGQL 221550Z 24011KT 9999 SHRA FEW014 SCT017 17/15 Q1011 WHT
 
EGPL - Benbecula, United Kingdom
Distance from station: WNW 96mi, 154km
Updated: 22/08/2019 17:20
Nearby showers, Mostly cloudy
Nearby showers, Mostly cloudy
 Wind from WSW
Wind: WSW 25 mph , 41 km/h
Temperature: 16°C
Dew Point: 12°C
Humidity: 77%
Barometer: 1008 hPa
Summary: Nearby Showers
Clouds: Mostly cloudy
Visibility: 6 miles , 10 km
Cloud details: Few Clouds 366 m
Mostly cloudy 914 m
2019/08/22 16:20 EGPL 221620Z 24022KT 9999 VCSH FEW012 BKN030 16/12 Q1008
EGQS - RAF Lossiemouth, United Kingdom
Distance from station: NE 99mi, 160km
Updated: 22/08/2019 16:50
Partly cloudy
Partly cloudy
 Wind from SW
Wind: SW 31 mph , 50 km/h, Gust: 47 mph , 76 km/h
Temperature: 20°C
Dew Point: 9°C
Humidity: 49%
Barometer: 1007 hPa
Clouds: Partly cloudy
Visibility: 6 miles , 10 km
Cloud details: Partly cloudy 1219 m
2019/08/22 15:50 EGQS 221550Z 23027G41KT 9999 SCT040 20/09 Q1007 BECMG 23020G30KT RMK BLU BLU
EGPO - Stornoway, United Kingdom
Distance from station: NNW 111mi, 179km
Updated: 22/08/2019 17:20
Mostly cloudy
Mostly cloudy
 Wind from SW
Wind: SW 29 mph , 46 km/h
Temperature: 15°C
Dew Point: 11°C
Humidity: 77%
Barometer: 1005 hPa
Clouds: Mostly cloudy
Visibility: 6 miles , 10 km
Cloud details: Few Clouds 457 m
Partly cloudy 732 m
Mostly cloudy 975 m
2019/08/22 16:20 EGPO 221620Z 23025KT 9999 FEW015 SCT024 BKN032 15/11 Q1005
 
EGPD - Aberdeen/Dyce, United Kingdom
Distance from station: ENE 118mi, 190km
Updated: 22/08/2019 17:20
Few Clouds
Few Clouds
 Wind from SSW
Wind: SSW 21 mph , 33 km/h
Temperature: 19°C
Dew Point: 13°C
Humidity: 68%
Barometer: 1009 hPa
Clouds: Few Clouds
Visibility: 6 miles , 10 km
Cloud details: Few Clouds 1067 m
2019/08/22 16:20 EGPD 221620Z 20018KT 9999 FEW035 19/13 Q1009 NOSIG
EGAE - Eglinton/Londond, United Kingdom
Distance from station: SSW 138mi, 222km
Updated: 22/08/2019 17:20
Nearby showers, Mostly cloudy
Nearby showers, Mostly cloudy
 Wind from WSW
Wind: WSW 17 mph , 28 km/h
Temperature: 18°C
Dew Point: 16°C
Humidity: 88%
Barometer: 1014 hPa
Summary: Nearby Showers
Clouds: Mostly cloudy
Visibility: 6 miles , 10 km
Cloud details: Partly cloudy 244 m
Mostly cloudy 396 m
2019/08/22 16:20 EGAE 221620Z 24015KT 9999 VCSH SCT008 BKN013 18/16 Q1014
EGPC - Wick, United Kingdom
Distance from station: NNE 144mi, 232km
Updated: 22/08/2019 17:20
Partly cloudy
Partly cloudy
 Wind from SW
Wind: SW 17 mph , 28 km/h
Temperature: 17°C
Dew Point: 12°C
Humidity: 73%
Barometer: 1005 hPa
Clouds: Partly cloudy
Visibility: 6 miles , 10 km
Cloud details: Few Clouds 457 m
Partly cloudy 1433 m
2019/08/22 16:20 EGPC 221620Z 22015KT 190V250 9999 FEW015 SCT047 17/12 Q1005

Metar display script from Saratoga-Weather.org